sensor_id;sensor_type;location;lat;lon;timestamp;P1;durP1;ratioP1;P2;durP2;ratioP2
25301;SDS011;13243;50.888;4.724;2023-01-08T00:04:58;5.28;;;2.72;;
25301;SDS011;13243;50.888;4.724;2023-01-08T00:10:00;6.25;;;2.88;;
25301;SDS011;13243;50.888;4.724;2023-01-08T00:15:02;8.05;;;2.45;;
25301;SDS011;13243;50.888;4.724;2023-01-08T00:20:04;9.15;;;2.53;;
25301;SDS011;13243;50.888;4.724;2023-01-08T00:25:07;6.05;;;2.67;;
25301;SDS011;13243;50.888;4.724;2023-01-08T00:30:09;5.90;;;2.45;;
25301;SDS011;13243;50.888;4.724;2023-01-08T00:35:16;6.13;;;2.45;;
25301;SDS011;13243;50.888;4.724;2023-01-08T00:40:18;4.32;;;2.45;;
25301;SDS011;13243;50.888;4.724;2023-01-08T00:45:19;4.63;;;2.65;;
25301;SDS011;13243;50.888;4.724;2023-01-08T00:50:22;6.50;;;2.83;;
25301;SDS011;13243;50.888;4.724;2023-01-08T00:55:24;5.95;;;2.55;;
25301;SDS011;13243;50.888;4.724;2023-01-08T01:00:27;7.70;;;3.20;;
25301;SDS011;13243;50.888;4.724;2023-01-08T01:05:29;8.35;;;2.47;;
25301;SDS011;13243;50.888;4.724;2023-01-08T01:10:31;2.35;;;1.50;;
25301;SDS011;13243;50.888;4.724;2023-01-08T01:15:33;1.55;;;0.73;;
25301;SDS011;13243;50.888;4.724;2023-01-08T01:20:35;3.63;;;0.90;;
25301;SDS011;13243;50.888;4.724;2023-01-08T01:25:37;1.60;;;0.98;;
25301;SDS011;13243;50.888;4.724;2023-01-08T01:30:39;2.50;;;0.80;;
25301;SDS011;13243;50.888;4.724;2023-01-08T01:35:41;5.55;;;1.02;;
25301;SDS011;13243;50.888;4.724;2023-01-08T01:40:42;4.38;;;1.42;;
25301;SDS011;13243;50.888;4.724;2023-01-08T01:45:44;7.72;;;1.08;;
25301;SDS011;13243;50.888;4.724;2023-01-08T01:50:47;7.88;;;2.08;;
25301;SDS011;13243;50.888;4.724;2023-01-08T01:55:54;4.40;;;0.93;;
25301;SDS011;13243;50.888;4.724;2023-01-08T02:01:03;2.65;;;0.90;;
25301;SDS011;13243;50.888;4.724;2023-01-08T02:11:10;4.95;;;1.35;;
25301;SDS011;13243;50.888;4.724;2023-01-08T02:17:16;5.28;;;1.35;;
25301;SDS011;13243;50.888;4.724;2023-01-08T02:22:00;3.20;;;1.13;;
25301;SDS011;13243;50.888;4.724;2023-01-08T02:27:03;4.22;;;1.23;;
25301;SDS011;13243;50.888;4.724;2023-01-08T02:32:08;8.50;;;1.55;;
25301;SDS011;13243;50.888;4.724;2023-01-08T02:37:10;5.28;;;1.33;;
25301;SDS011;13243;50.888;4.724;2023-01-08T02:42:18;4.93;;;1.40;;
25301;SDS011;13243;50.888;4.724;2023-01-08T02:47:43;8.35;;;1.30;;
25301;SDS011;13243;50.888;4.724;2023-01-08T02:58:08;7.10;;;1.85;;
25301;SDS011;13243;50.888;4.724;2023-01-08T03:03:13;4.97;;;1.85;;
25301;SDS011;13243;50.888;4.724;2023-01-08T03:08:25;9.05;;;2.63;;
25301;SDS011;13243;50.888;4.724;2023-01-08T03:13:33;8.10;;;2.63;;
25301;SDS011;13243;50.888;4.724;2023-01-08T03:18:51;8.13;;;2.22;;
25301;SDS011;13243;50.888;4.724;2023-01-08T03:23:59;3.70;;;1.73;;
25301;SDS011;13243;50.888;4.724;2023-01-08T03:29:03;3.38;;;1.58;;
25301;SDS011;13243;50.888;4.724;2023-01-08T03:34:08;2.28;;;0.95;;
25301;SDS011;13243;50.888;4.724;2023-01-08T03:39:15;2.92;;;0.93;;
25301;SDS011;13243;50.888;4.724;2023-01-08T03:44:21;5.85;;;1.33;;
25301;SDS011;13243;50.888;4.724;2023-01-08T03:49:23;4.88;;;1.27;;
25301;SDS011;13243;50.888;4.724;2023-01-08T03:54:31;4.30;;;0.98;;
25301;SDS011;13243;50.888;4.724;2023-01-08T03:59:34;3.80;;;1.05;;
25301;SDS011;13243;50.888;4.724;2023-01-08T04:04:36;1.98;;;0.68;;
25301;SDS011;13243;50.888;4.724;2023-01-08T04:09:39;5.00;;;1.17;;
25301;SDS011;13243;50.888;4.724;2023-01-08T04:14:42;4.57;;;1.40;;
25301;SDS011;13243;50.888;4.724;2023-01-08T04:19:44;6.05;;;1.20;;
25301;SDS011;13243;50.888;4.724;2023-01-08T04:24:45;8.77;;;1.10;;
25301;SDS011;13243;50.888;4.724;2023-01-08T04:29:47;8.63;;;1.25;;
25301;SDS011;13243;50.888;4.724;2023-01-08T04:34:49;1.85;;;0.70;;
25301;SDS011;13243;50.888;4.724;2023-01-08T04:39:51;5.07;;;0.82;;
25301;SDS011;13243;50.888;4.724;2023-01-08T04:44:53;11.50;;;1.70;;
25301;SDS011;13243;50.888;4.724;2023-01-08T04:49:55;5.93;;;0.85;;
25301;SDS011;13243;50.888;4.724;2023-01-08T04:54:56;3.83;;;1.00;;
25301;SDS011;13243;50.888;4.724;2023-01-08T04:59:58;4.18;;;0.80;;
25301;SDS011;13243;50.888;4.724;2023-01-08T05:05:00;4.93;;;1.00;;
25301;SDS011;13243;50.888;4.724;2023-01-08T05:10:03;10.70;;;2.47;;
25301;SDS011;13243;50.888;4.724;2023-01-08T05:15:05;7.10;;;1.13;;
25301;SDS011;13243;50.888;4.724;2023-01-08T05:20:08;9.60;;;1.20;;
25301;SDS011;13243;50.888;4.724;2023-01-08T05:25:10;10.50;;;1.27;;
25301;SDS011;13243;50.888;4.724;2023-01-08T05:30:12;3.40;;;1.20;;
25301;SDS011;13243;50.888;4.724;2023-01-08T05:35:14;1.52;;;0.75;;
25301;SDS011;13243;50.888;4.724;2023-01-08T05:40:16;8.90;;;0.95;;
25301;SDS011;13243;50.888;4.724;2023-01-08T05:45:18;4.30;;;0.88;;
25301;SDS011;13243;50.888;4.724;2023-01-08T05:50:19;3.80;;;0.93;;
25301;SDS011;13243;50.888;4.724;2023-01-08T05:55:21;14.32;;;1.50;;
25301;SDS011;13243;50.888;4.724;2023-01-08T06:00:23;5.50;;;1.73;;
25301;SDS011;13243;50.888;4.724;2023-01-08T06:05:26;5.28;;;1.45;;
25301;SDS011;13243;50.888;4.724;2023-01-08T06:10:29;11.95;;;1.65;;
25301;SDS011;13243;50.888;4.724;2023-01-08T06:15:30;3.08;;;1.02;;
25301;SDS011;13243;50.888;4.724;2023-01-08T06:20:32;6.35;;;1.27;;
25301;SDS011;13243;50.888;4.724;2023-01-08T06:25:35;9.02;;;0.98;;
25301;SDS011;13243;50.888;4.724;2023-01-08T06:30:37;5.78;;;1.00;;
25301;SDS011;13243;50.888;4.724;2023-01-08T06:35:39;5.10;;;1.00;;
25301;SDS011;13243;50.888;4.724;2023-01-08T06:40:40;6.63;;;1.48;;
25301;SDS011;13243;50.888;4.724;2023-01-08T06:45:42;6.90;;;1.58;;
25301;SDS011;13243;50.888;4.724;2023-01-08T06:50:44;10.82;;;2.38;;
25301;SDS011;13243;50.888;4.724;2023-01-08T06:55:46;9.65;;;1.60;;
25301;SDS011;13243;50.888;4.724;2023-01-08T07:00:48;9.25;;;1.38;;
25301;SDS011;13243;50.888;4.724;2023-01-08T07:05:50;6.32;;;1.83;;
25301;SDS011;13243;50.888;4.724;2023-01-08T07:10:52;8.95;;;1.20;;
25301;SDS011;13243;50.888;4.724;2023-01-08T07:15:54;11.88;;;1.65;;
25301;SDS011;13243;50.888;4.724;2023-01-08T07:20:56;10.48;;;1.80;;
25301;SDS011;13243;50.888;4.724;2023-01-08T07:25:59;6.97;;;1.90;;
25301;SDS011;13243;50.888;4.724;2023-01-08T07:31:05;9.82;;;1.35;;
25301;SDS011;13243;50.888;4.724;2023-01-08T07:36:07;5.97;;;1.40;;
25301;SDS011;13243;50.888;4.724;2023-01-08T07:41:09;9.02;;;1.83;;
25301;SDS011;13243;50.888;4.724;2023-01-08T07:46:13;10.20;;;1.95;;
25301;SDS011;13243;50.888;4.724;2023-01-08T07:51:16;6.43;;;1.40;;
25301;SDS011;13243;50.888;4.724;2023-01-08T07:56:17;10.35;;;1.83;;
25301;SDS011;13243;50.888;4.724;2023-01-08T08:01:19;8.50;;;1.80;;
25301;SDS011;13243;50.888;4.724;2023-01-08T08:06:21;6.50;;;1.48;;
25301;SDS011;13243;50.888;4.724;2023-01-08T08:11:23;13.05;;;1.73;;
25301;SDS011;13243;50.888;4.724;2023-01-08T08:16:25;8.52;;;1.85;;
25301;SDS011;13243;50.888;4.724;2023-01-08T08:21:27;14.27;;;1.65;;
25301;SDS011;13243;50.888;4.724;2023-01-08T08:26:32;15.57;;;2.03;;
25301;SDS011;13243;50.888;4.724;2023-01-08T08:31:33;16.67;;;1.60;;
25301;SDS011;13243;50.888;4.724;2023-01-08T08:36:35;7.70;;;1.80;;
25301;SDS011;13243;50.888;4.724;2023-01-08T08:41:37;6.43;;;1.70;;
25301;SDS011;13243;50.888;4.724;2023-01-08T08:46:39;5.95;;;2.05;;
25301;SDS011;13243;50.888;4.724;2023-01-08T08:51:41;12.38;;;1.58;;
25301;SDS011;13243;50.888;4.724;2023-01-08T08:56:43;7.88;;;1.40;;
25301;SDS011;13243;50.888;4.724;2023-01-08T09:01:45;1.73;;;0.63;;
25301;SDS011;13243;50.888;4.724;2023-01-08T09:06:47;2.78;;;0.73;;
25301;SDS011;13243;50.888;4.724;2023-01-08T09:11:49;3.72;;;0.55;;
25301;SDS011;13243;50.888;4.724;2023-01-08T09:16:51;0.55;;;0.40;;
25301;SDS011;13243;50.888;4.724;2023-01-08T09:21:53;1.00;;;0.70;;
25301;SDS011;13243;50.888;4.724;2023-01-08T09:26:55;0.57;;;0.50;;
25301;SDS011;13243;50.888;4.724;2023-01-08T09:31:57;2.15;;;0.55;;
25301;SDS011;13243;50.888;4.724;2023-01-08T09:37:00;0.63;;;0.35;;
25301;SDS011;13243;50.888;4.724;2023-01-08T09:42:03;0.50;;;0.40;;
25301;SDS011;13243;50.888;4.724;2023-01-08T09:47:08;0.32;;;0.32;;
25301;SDS011;13243;50.888;4.724;2023-01-08T09:52:29;0.70;;;0.32;;
25301;SDS011;13243;50.888;4.724;2023-01-08T09:57:33;5.22;;;0.60;;
25301;SDS011;13243;50.888;4.724;2023-01-08T10:02:34;4.13;;;0.70;;
25301;SDS011;13243;50.888;4.724;2023-01-08T10:07:39;1.65;;;0.52;;
25301;SDS011;13243;50.888;4.724;2023-01-08T10:12:41;0.70;;;0.47;;
25301;SDS011;13243;50.888;4.724;2023-01-08T10:18:05;3.22;;;0.85;;
25301;SDS011;13243;50.888;4.724;2023-01-08T10:23:13;1.88;;;0.90;;
25301;SDS011;13243;50.888;4.724;2023-01-08T10:28:26;3.80;;;0.70;;
25301;SDS011;13243;50.888;4.724;2023-01-08T10:33:30;1.85;;;0.75;;
25301;SDS011;13243;50.888;4.724;2023-01-08T10:38:55;2.17;;;0.90;;
25301;SDS011;13243;50.888;4.724;2023-01-08T10:44:04;2.63;;;0.70;;
25301;SDS011;13243;50.888;4.724;2023-01-08T10:49:19;5.45;;;0.73;;
25301;SDS011;13243;50.888;4.724;2023-01-08T10:54:38;0.95;;;0.75;;
25301;SDS011;13243;50.888;4.724;2023-01-08T10:59:41;1.58;;;0.82;;
25301;SDS011;13243;50.888;4.724;2023-01-08T11:04:43;4.47;;;0.80;;
25301;SDS011;13243;50.888;4.724;2023-01-08T11:09:52;3.47;;;1.63;;
25301;SDS011;13243;50.888;4.724;2023-01-08T11:14:54;2.90;;;0.88;;
25301;SDS011;13243;50.888;4.724;2023-01-08T11:20:18;4.10;;;0.68;;
25301;SDS011;13243;50.888;4.724;2023-01-08T11:25:28;2.15;;;0.80;;
25301;SDS011;13243;50.888;4.724;2023-01-08T11:30:31;2.67;;;0.65;;
25301;SDS011;13243;50.888;4.724;2023-01-08T11:35:37;1.83;;;1.13;;
25301;SDS011;13243;50.888;4.724;2023-01-08T11:46:04;1.25;;;0.70;;
25301;SDS011;13243;50.888;4.724;2023-01-08T11:56:30;9.40;;;1.08;;
25301;SDS011;13243;50.888;4.724;2023-01-08T12:39:25;5.35;;;1.00;;
25301;SDS011;13243;50.888;4.724;2023-01-08T12:44:34;3.38;;;1.05;;
25301;SDS011;13243;50.888;4.724;2023-01-08T12:49:40;6.85;;;1.20;;
25301;SDS011;13243;50.888;4.724;2023-01-08T12:54:57;3.13;;;0.75;;
25301;SDS011;13243;50.888;4.724;2023-01-08T13:00:37;9.57;;;1.25;;
25301;SDS011;13243;50.888;4.724;2023-01-08T13:05:43;4.80;;;1.00;;
25301;SDS011;13243;50.888;4.724;2023-01-08T13:10:49;5.75;;;1.10;;
25301;SDS011;13243;50.888;4.724;2023-01-08T13:21:14;4.25;;;1.33;;
25301;SDS011;13243;50.888;4.724;2023-01-08T13:26:16;6.70;;;1.08;;
25301;SDS011;13243;50.888;4.724;2023-01-08T13:31:37;7.20;;;1.30;;
25301;SDS011;13243;50.888;4.724;2023-01-08T13:41:44;5.15;;;1.08;;
25301;SDS011;13243;50.888;4.724;2023-01-08T13:52:42;2.13;;;1.15;;
25301;SDS011;13243;50.888;4.724;2023-01-08T13:57:52;4.30;;;1.25;;
25301;SDS011;13243;50.888;4.724;2023-01-08T14:02:57;7.35;;;1.25;;
25301;SDS011;13243;50.888;4.724;2023-01-08T14:07:59;2.92;;;0.80;;
25301;SDS011;13243;50.888;4.724;2023-01-08T14:13:05;4.95;;;1.15;;
25301;SDS011;13243;50.888;4.724;2023-01-08T14:18:10;4.65;;;1.15;;
25301;SDS011;13243;50.888;4.724;2023-01-08T14:23:21;4.28;;;0.80;;
25301;SDS011;13243;50.888;4.724;2023-01-08T14:28:26;5.82;;;1.15;;
25301;SDS011;13243;50.888;4.724;2023-01-08T14:33:37;2.13;;;1.17;;
25301;SDS011;13243;50.888;4.724;2023-01-08T14:38:42;4.45;;;1.17;;
25301;SDS011;13243;50.888;4.724;2023-01-08T14:43:47;7.65;;;1.42;;
25301;SDS011;13243;50.888;4.724;2023-01-08T14:48:50;4.97;;;1.02;;
25301;SDS011;13243;50.888;4.724;2023-01-08T14:53:58;3.85;;;1.23;;
25301;SDS011;13243;50.888;4.724;2023-01-08T14:59:07;2.78;;;0.90;;
25301;SDS011;13243;50.888;4.724;2023-01-08T15:09:21;6.43;;;1.30;;
25301;SDS011;13243;50.888;4.724;2023-01-08T15:14:25;5.32;;;0.90;;
25301;SDS011;13243;50.888;4.724;2023-01-08T15:19:29;4.82;;;1.02;;
25301;SDS011;13243;50.888;4.724;2023-01-08T15:24:39;5.82;;;1.20;;
25301;SDS011;13243;50.888;4.724;2023-01-08T15:29:49;2.78;;;0.95;;
25301;SDS011;13243;50.888;4.724;2023-01-08T15:34:59;2.70;;;1.00;;
25301;SDS011;13243;50.888;4.724;2023-01-08T15:40:01;6.90;;;1.50;;
25301;SDS011;13243;50.888;4.724;2023-01-08T15:45:05;8.73;;;1.40;;
25301;SDS011;13243;50.888;4.724;2023-01-08T15:50:32;5.90;;;1.40;;
25301;SDS011;13243;50.888;4.724;2023-01-08T15:55:39;7.90;;;1.85;;
25301;SDS011;13243;50.888;4.724;2023-01-08T16:00:44;3.75;;;1.27;;
25301;SDS011;13243;50.888;4.724;2023-01-08T16:05:46;6.38;;;1.17;;
25301;SDS011;13243;50.888;4.724;2023-01-08T16:10:51;7.20;;;1.73;;
25301;SDS011;13243;50.888;4.724;2023-01-08T16:15:53;9.80;;;2.08;;
25301;SDS011;13243;50.888;4.724;2023-01-08T16:20:59;9.23;;;2.38;;
25301;SDS011;13243;50.888;4.724;2023-01-08T16:26:08;5.72;;;1.70;;
25301;SDS011;13243;50.888;4.724;2023-01-08T16:36:14;5.13;;;1.48;;
25301;SDS011;13243;50.888;4.724;2023-01-08T16:41:16;6.97;;;1.35;;
25301;SDS011;13243;50.888;4.724;2023-01-08T16:46:18;6.20;;;1.88;;
25301;SDS011;13243;50.888;4.724;2023-01-08T16:51:20;5.88;;;1.42;;
25301;SDS011;13243;50.888;4.724;2023-01-08T16:56:22;5.43;;;1.55;;
25301;SDS011;13243;50.888;4.724;2023-01-08T17:01:23;3.28;;;1.40;;
25301;SDS011;13243;50.888;4.724;2023-01-08T17:06:27;11.93;;;1.95;;
25301;SDS011;13243;50.888;4.724;2023-01-08T17:11:29;5.50;;;1.17;;
25301;SDS011;13243;50.888;4.724;2023-01-08T17:16:32;6.22;;;1.88;;
25301;SDS011;13243;50.888;4.724;2023-01-08T17:21:34;7.57;;;1.63;;
25301;SDS011;13243;50.888;4.724;2023-01-08T17:26:36;13.32;;;2.38;;
25301;SDS011;13243;50.888;4.724;2023-01-08T17:31:38;9.13;;;1.80;;
25301;SDS011;13243;50.888;4.724;2023-01-08T17:36:41;5.95;;;1.30;;
25301;SDS011;13243;50.888;4.724;2023-01-08T17:41:43;2.72;;;1.23;;
25301;SDS011;13243;50.888;4.724;2023-01-08T17:47:03;4.20;;;1.33;;
25301;SDS011;13243;50.888;4.724;2023-01-08T17:52:06;4.45;;;1.55;;
25301;SDS011;13243;50.888;4.724;2023-01-08T17:57:09;4.70;;;1.83;;
25301;SDS011;13243;50.888;4.724;2023-01-08T18:02:12;6.50;;;1.70;;
25301;SDS011;13243;50.888;4.724;2023-01-08T18:07:16;7.35;;;1.73;;
25301;SDS011;13243;50.888;4.724;2023-01-08T18:12:18;8.73;;;1.40;;
25301;SDS011;13243;50.888;4.724;2023-01-08T18:17:20;10.85;;;1.83;;
25301;SDS011;13243;50.888;4.724;2023-01-08T18:22:22;2.85;;;1.35;;
25301;SDS011;13243;50.888;4.724;2023-01-08T18:27:25;7.18;;;1.20;;
25301;SDS011;13243;50.888;4.724;2023-01-08T18:32:28;4.90;;;1.30;;
25301;SDS011;13243;50.888;4.724;2023-01-08T18:37:33;7.90;;;1.42;;
25301;SDS011;13243;50.888;4.724;2023-01-08T18:42:34;4.38;;;2.10;;
25301;SDS011;13243;50.888;4.724;2023-01-08T18:47:36;10.77;;;2.78;;
25301;SDS011;13243;50.888;4.724;2023-01-08T18:52:40;7.10;;;2.00;;
25301;SDS011;13243;50.888;4.724;2023-01-08T18:57:42;9.93;;;1.60;;
25301;SDS011;13243;50.888;4.724;2023-01-08T19:02:44;5.43;;;1.85;;
25301;SDS011;13243;50.888;4.724;2023-01-08T19:07:47;3.08;;;1.50;;
25301;SDS011;13243;50.888;4.724;2023-01-08T19:12:49;5.00;;;1.30;;
25301;SDS011;13243;50.888;4.724;2023-01-08T19:17:51;6.70;;;1.63;;
25301;SDS011;13243;50.888;4.724;2023-01-08T19:22:53;4.57;;;1.40;;
25301;SDS011;13243;50.888;4.724;2023-01-08T19:27:55;3.03;;;1.35;;
25301;SDS011;13243;50.888;4.724;2023-01-08T19:32:57;8.80;;;1.60;;
25301;SDS011;13243;50.888;4.724;2023-01-08T19:37:59;2.30;;;1.10;;
25301;SDS011;13243;50.888;4.724;2023-01-08T19:43:01;3.05;;;1.30;;
25301;SDS011;13243;50.888;4.724;2023-01-08T19:48:22;3.67;;;1.08;;
25301;SDS011;13243;50.888;4.724;2023-01-08T19:53:24;3.08;;;1.20;;
25301;SDS011;13243;50.888;4.724;2023-01-08T19:58:26;1.95;;;0.75;;
25301;SDS011;13243;50.888;4.724;2023-01-08T20:03:29;2.35;;;1.27;;
25301;SDS011;13243;50.888;4.724;2023-01-08T20:08:31;3.85;;;1.23;;
25301;SDS011;13243;50.888;4.724;2023-01-08T20:13:33;4.32;;;1.50;;
25301;SDS011;13243;50.888;4.724;2023-01-08T20:18:37;3.05;;;1.10;;
25301;SDS011;13243;50.888;4.724;2023-01-08T20:23:39;2.05;;;1.10;;
25301;SDS011;13243;50.888;4.724;2023-01-08T20:28:42;3.22;;;1.58;;
25301;SDS011;13243;50.888;4.724;2023-01-08T20:33:46;4.85;;;2.17;;
25301;SDS011;13243;50.888;4.724;2023-01-08T20:38:49;1.83;;;1.20;;
25301;SDS011;13243;50.888;4.724;2023-01-08T20:43:53;1.90;;;0.90;;
25301;SDS011;13243;50.888;4.724;2023-01-08T20:49:00;5.50;;;1.52;;
25301;SDS011;13243;50.888;4.724;2023-01-08T20:54:04;8.07;;;1.55;;
25301;SDS011;13243;50.888;4.724;2023-01-08T20:59:08;4.93;;;1.50;;
25301;SDS011;13243;50.888;4.724;2023-01-08T21:04:10;7.80;;;2.03;;
25301;SDS011;13243;50.888;4.724;2023-01-08T21:09:12;4.47;;;1.55;;
25301;SDS011;13243;50.888;4.724;2023-01-08T21:14:16;2.83;;;0.98;;
25301;SDS011;13243;50.888;4.724;2023-01-08T21:19:18;1.92;;;0.90;;
25301;SDS011;13243;50.888;4.724;2023-01-08T21:24:21;3.88;;;1.20;;
25301;SDS011;13243;50.888;4.724;2023-01-08T21:29:23;4.30;;;1.33;;
25301;SDS011;13243;50.888;4.724;2023-01-08T21:34:27;1.63;;;0.93;;
25301;SDS011;13243;50.888;4.724;2023-01-08T21:39:29;5.60;;;1.10;;
25301;SDS011;13243;50.888;4.724;2023-01-08T21:44:33;3.15;;;1.05;;
25301;SDS011;13243;50.888;4.724;2023-01-08T21:49:53;0.80;;;0.60;;
25301;SDS011;13243;50.888;4.724;2023-01-08T21:54:58;0.65;;;0.60;;
25301;SDS011;13243;50.888;4.724;2023-01-08T22:00:00;1.65;;;0.70;;
25301;SDS011;13243;50.888;4.724;2023-01-08T22:05:02;1.15;;;0.60;;
25301;SDS011;13243;50.888;4.724;2023-01-08T22:10:05;0.60;;;0.50;;
25301;SDS011;13243;50.888;4.724;2023-01-08T22:15:08;0.93;;;0.52;;
25301;SDS011;13243;50.888;4.724;2023-01-08T22:20:12;0.82;;;0.50;;
25301;SDS011;13243;50.888;4.724;2023-01-08T22:25:14;2.63;;;0.70;;
25301;SDS011;13243;50.888;4.724;2023-01-08T22:30:16;2.13;;;0.73;;
25301;SDS011;13243;50.888;4.724;2023-01-08T22:35:18;1.00;;;0.65;;
25301;SDS011;13243;50.888;4.724;2023-01-08T22:40:20;1.95;;;0.50;;
25301;SDS011;13243;50.888;4.724;2023-01-08T22:45:22;0.88;;;0.50;;
25301;SDS011;13243;50.888;4.724;2023-01-08T22:50:24;0.93;;;0.43;;
25301;SDS011;13243;50.888;4.724;2023-01-08T22:55:26;1.27;;;0.85;;
25301;SDS011;13243;50.888;4.724;2023-01-08T23:00:27;0.50;;;0.50;;
25301;SDS011;13243;50.888;4.724;2023-01-08T23:05:29;1.60;;;0.70;;
25301;SDS011;13243;50.888;4.724;2023-01-08T23:10:32;0.88;;;0.60;;
25301;SDS011;13243;50.888;4.724;2023-01-08T23:15:34;1.27;;;0.80;;
25301;SDS011;13243;50.888;4.724;2023-01-08T23:20:36;1.27;;;0.80;;
25301;SDS011;13243;50.888;4.724;2023-01-08T23:25:39;2.70;;;0.98;;
25301;SDS011;13243;50.888;4.724;2023-01-08T23:30:40;1.33;;;0.63;;
25301;SDS011;13243;50.888;4.724;2023-01-08T23:35:42;1.38;;;0.82;;
25301;SDS011;13243;50.888;4.724;2023-01-08T23:40:44;0.90;;;0.60;;
25301;SDS011;13243;50.888;4.724;2023-01-08T23:45:46;0.77;;;0.70;;
25301;SDS011;13243;50.888;4.724;2023-01-08T23:50:48;4.07;;;1.60;;
25301;SDS011;13243;50.888;4.724;2023-01-08T23:55:50;8.35;;;2.75;;
